aviador You're here:

LCLK Decoded Metar

LARNACA in CYPRUS
Report Time2018-07-18 20:00:00
UTC Time2018-07-18 20:16:10
Flight Rules vfr VFR
Wind200° at 04 kt
W.Decomp.*RWY 22: 3.7 kt HW 1.6 kt LCW
W.Rank200° ranks 10
Current wind is below 200° avg. (9.4)
Visibility9999 m
Phenomena:N/A
Clouds:N/A
Expected CloudBase > 400 ft AGL from Temp-Dew spread
CeilingNone
Temp27°C (ISA +12)
Dew Point26°C (94% RH)
Heat Index31.2°C
QNH1003 hPa
Density Alt2,172 ft
Elevation7 ft
Report Wrong Elevation
Raw Report
LCLK 182000Z 20004KT CAVOK 27/26 Q1003 NOSIG=

Extra information for LCLK:More info

Metar Taf Metar & Taf Last 4 Metars F.Rules Stats Wind Profile Meteogram Temp Stats Airport Information Weather charts Add Link Nearby VenuesMetar ALERT Operation Metar Decoded Social comments